sensor_id;sensor_type;location;lat;lon;timestamp;P1;durP1;ratioP1;P2;durP2;ratioP2
18905;SDS011;9585;51.018;4.282;2022-08-01T00:01:44;5.55;;;2.72;;
18905;SDS011;9585;51.018;4.282;2022-08-01T00:04:12;4.15;;;2.50;;
18905;SDS011;9585;51.018;4.282;2022-08-01T00:06:41;3.65;;;2.20;;
18905;SDS011;9585;51.018;4.282;2022-08-01T00:09:18;4.45;;;2.80;;
18905;SDS011;9585;51.018;4.282;2022-08-01T00:11:49;4.05;;;2.53;;
18905;SDS011;9585;51.018;4.282;2022-08-01T00:14:16;3.83;;;2.55;;
18905;SDS011;9585;51.018;4.282;2022-08-01T00:16:44;3.72;;;2.60;;
18905;SDS011;9585;51.018;4.282;2022-08-01T00:19:12;3.38;;;2.50;;
18905;SDS011;9585;51.018;4.282;2022-08-01T00:21:49;3.03;;;2.72;;
18905;SDS011;9585;51.018;4.282;2022-08-01T00:24:29;3.63;;;3.03;;
18905;SDS011;9585;51.018;4.282;2022-08-01T00:27:16;3.38;;;2.97;;
18905;SDS011;9585;51.018;4.282;2022-08-01T00:29:45;5.65;;;2.90;;
18905;SDS011;9585;51.018;4.282;2022-08-01T00:32:15;3.92;;;2.72;;
18905;SDS011;9585;51.018;4.282;2022-08-01T00:34:43;4.15;;;2.80;;
18905;SDS011;9585;51.018;4.282;2022-08-01T00:37:21;5.85;;;3.05;;
18905;SDS011;9585;51.018;4.282;2022-08-01T00:40:10;4.95;;;2.60;;
18905;SDS011;9585;51.018;4.282;2022-08-01T00:42:39;3.40;;;3.08;;
18905;SDS011;9585;51.018;4.282;2022-08-01T00:45:08;4.50;;;3.22;;
18905;SDS011;9585;51.018;4.282;2022-08-01T00:47:36;3.75;;;2.95;;
18905;SDS011;9585;51.018;4.282;2022-08-01T00:50:04;4.82;;;3.28;;
18905;SDS011;9585;51.018;4.282;2022-08-01T00:52:43;5.95;;;4.05;;
18905;SDS011;9585;51.018;4.282;2022-08-01T00:55:14;5.72;;;4.05;;
18905;SDS011;9585;51.018;4.282;2022-08-01T00:57:56;5.05;;;3.63;;
18905;SDS011;9585;51.018;4.282;2022-08-01T01:00:26;4.15;;;3.40;;
18905;SDS011;9585;51.018;4.282;2022-08-01T01:03:03;5.47;;;3.75;;
18905;SDS011;9585;51.018;4.282;2022-08-01T01:05:40;7.60;;;3.92;;
18905;SDS011;9585;51.018;4.282;2022-08-01T01:08:32;4.65;;;3.90;;
18905;SDS011;9585;51.018;4.282;2022-08-01T01:11:10;5.68;;;4.40;;
18905;SDS011;9585;51.018;4.282;2022-08-01T01:13:46;7.65;;;4.75;;
18905;SDS011;9585;51.018;4.282;2022-08-01T01:16:23;7.78;;;5.18;;
18905;SDS011;9585;51.018;4.282;2022-08-01T01:18:56;7.95;;;5.45;;
18905;SDS011;9585;51.018;4.282;2022-08-01T01:21:38;9.07;;;5.97;;
18905;SDS011;9585;51.018;4.282;2022-08-01T01:24:23;7.32;;;5.43;;
18905;SDS011;9585;51.018;4.282;2022-08-01T01:27:06;8.23;;;5.47;;
18905;SDS011;9585;51.018;4.282;2022-08-01T01:29:46;7.97;;;5.82;;
18905;SDS011;9585;51.018;4.282;2022-08-01T01:35:06;13.20;;;6.90;;
18905;SDS011;9585;51.018;4.282;2022-08-01T01:37:46;13.50;;;7.55;;
18905;SDS011;9585;51.018;4.282;2022-08-01T01:40:23;10.65;;;7.38;;
18905;SDS011;9585;51.018;4.282;2022-08-01T01:42:54;12.38;;;7.07;;
18905;SDS011;9585;51.018;4.282;2022-08-01T01:45:29;12.63;;;6.88;;
18905;SDS011;9585;51.018;4.282;2022-08-01T01:48:06;10.50;;;6.93;;
18905;SDS011;9585;51.018;4.282;2022-08-01T01:50:45;9.40;;;6.47;;
18905;SDS011;9585;51.018;4.282;2022-08-01T01:53:19;9.02;;;7.32;;
18905;SDS011;9585;51.018;4.282;2022-08-01T01:55:52;9.75;;;7.00;;
18905;SDS011;9585;51.018;4.282;2022-08-01T01:58:33;12.38;;;8.05;;
18905;SDS011;9585;51.018;4.282;2022-08-01T02:01:04;8.63;;;6.18;;
18905;SDS011;9585;51.018;4.282;2022-08-01T02:03:40;8.35;;;6.35;;
18905;SDS011;9585;51.018;4.282;2022-08-01T02:06:19;12.23;;;7.65;;
18905;SDS011;9585;51.018;4.282;2022-08-01T02:08:50;11.98;;;7.13;;
18905;SDS011;9585;51.018;4.282;2022-08-01T02:11:23;14.43;;;8.07;;
18905;SDS011;9585;51.018;4.282;2022-08-01T02:13:52;10.85;;;7.32;;
18905;SDS011;9585;51.018;4.282;2022-08-01T02:16:28;11.57;;;7.57;;
18905;SDS011;9585;51.018;4.282;2022-08-01T02:18:58;11.23;;;7.75;;
18905;SDS011;9585;51.018;4.282;2022-08-01T02:21:32;13.10;;;9.30;;
18905;SDS011;9585;51.018;4.282;2022-08-01T02:24:14;11.82;;;7.88;;
18905;SDS011;9585;51.018;4.282;2022-08-01T02:26:52;15.10;;;9.27;;
18905;SDS011;9585;51.018;4.282;2022-08-01T02:29:33;16.98;;;9.85;;
18905;SDS011;9585;51.018;4.282;2022-08-01T02:32:08;13.57;;;8.15;;
18905;SDS011;9585;51.018;4.282;2022-08-01T02:35:00;18.85;;;9.57;;
18905;SDS011;9585;51.018;4.282;2022-08-01T02:37:33;11.75;;;8.13;;
18905;SDS011;9585;51.018;4.282;2022-08-01T02:40:03;11.48;;;7.93;;
18905;SDS011;9585;51.018;4.282;2022-08-01T02:42:35;12.13;;;7.78;;
18905;SDS011;9585;51.018;4.282;2022-08-01T02:45:09;11.98;;;8.50;;
18905;SDS011;9585;51.018;4.282;2022-08-01T02:47:41;13.57;;;8.68;;
18905;SDS011;9585;51.018;4.282;2022-08-01T02:50:28;10.57;;;8.50;;
18905;SDS011;9585;51.018;4.282;2022-08-01T02:52:58;14.10;;;8.60;;
18905;SDS011;9585;51.018;4.282;2022-08-01T02:55:28;11.60;;;7.57;;
18905;SDS011;9585;51.018;4.282;2022-08-01T02:57:57;10.95;;;8.48;;
18905;SDS011;9585;51.018;4.282;2022-08-01T03:00:27;12.23;;;8.85;;
18905;SDS011;9585;51.018;4.282;2022-08-01T03:03:08;16.05;;;11.20;;
18905;SDS011;9585;51.018;4.282;2022-08-01T03:05:59;17.45;;;11.93;;
18905;SDS011;9585;51.018;4.282;2022-08-01T03:08:29;19.73;;;12.50;;
18905;SDS011;9585;51.018;4.282;2022-08-01T03:10:58;18.38;;;12.30;;
18905;SDS011;9585;51.018;4.282;2022-08-01T03:13:33;16.08;;;11.32;;
18905;SDS011;9585;51.018;4.282;2022-08-01T03:16:02;11.07;;;8.85;;
18905;SDS011;9585;51.018;4.282;2022-08-01T03:18:32;10.98;;;9.80;;
18905;SDS011;9585;51.018;4.282;2022-08-01T03:21:35;12.65;;;9.90;;
18905;SDS011;9585;51.018;4.282;2022-08-01T03:24:08;10.80;;;9.43;;
18905;SDS011;9585;51.018;4.282;2022-08-01T03:26:40;10.10;;;8.95;;
18905;SDS011;9585;51.018;4.282;2022-08-01T03:29:14;9.20;;;8.25;;
18905;SDS011;9585;51.018;4.282;2022-08-01T03:31:59;10.00;;;8.95;;
18905;SDS011;9585;51.018;4.282;2022-08-01T03:34:41;10.27;;;8.45;;
18905;SDS011;9585;51.018;4.282;2022-08-01T03:37:10;10.50;;;8.77;;
18905;SDS011;9585;51.018;4.282;2022-08-01T03:39:54;11.98;;;9.20;;
18905;SDS011;9585;51.018;4.282;2022-08-01T03:42:27;10.55;;;9.38;;
18905;SDS011;9585;51.018;4.282;2022-08-01T03:44:59;9.13;;;8.25;;
18905;SDS011;9585;51.018;4.282;2022-08-01T03:47:31;10.38;;;9.20;;
18905;SDS011;9585;51.018;4.282;2022-08-01T03:50:02;10.68;;;8.60;;
18905;SDS011;9585;51.018;4.282;2022-08-01T03:52:34;10.98;;;8.35;;
18905;SDS011;9585;51.018;4.282;2022-08-01T03:55:09;13.18;;;10.25;;
18905;SDS011;9585;51.018;4.282;2022-08-01T03:57:42;9.25;;;7.68;;
18905;SDS011;9585;51.018;4.282;2022-08-01T04:00:14;7.82;;;7.03;;
18905;SDS011;9585;51.018;4.282;2022-08-01T04:02:44;8.35;;;7.13;;
18905;SDS011;9585;51.018;4.282;2022-08-01T04:05:14;9.80;;;6.45;;
18905;SDS011;9585;51.018;4.282;2022-08-01T04:07:46;9.65;;;6.43;;
18905;SDS011;9585;51.018;4.282;2022-08-01T04:10:20;9.32;;;7.18;;
18905;SDS011;9585;51.018;4.282;2022-08-01T04:12:55;8.35;;;7.03;;
18905;SDS011;9585;51.018;4.282;2022-08-01T04:15:25;7.07;;;5.82;;
18905;SDS011;9585;51.018;4.282;2022-08-01T04:17:52;8.18;;;7.07;;
18905;SDS011;9585;51.018;4.282;2022-08-01T04:20:21;8.80;;;6.70;;
18905;SDS011;9585;51.018;4.282;2022-08-01T04:22:49;7.15;;;5.72;;
18905;SDS011;9585;51.018;4.282;2022-08-01T04:25:18;6.10;;;5.47;;
18905;SDS011;9585;51.018;4.282;2022-08-01T04:27:50;6.75;;;5.95;;
18905;SDS011;9585;51.018;4.282;2022-08-01T04:30:19;9.10;;;6.38;;
18905;SDS011;9585;51.018;4.282;2022-08-01T04:32:49;6.43;;;5.70;;
18905;SDS011;9585;51.018;4.282;2022-08-01T04:35:19;9.52;;;7.80;;
18905;SDS011;9585;51.018;4.282;2022-08-01T04:37:53;8.05;;;6.57;;
18905;SDS011;9585;51.018;4.282;2022-08-01T04:40:21;10.25;;;7.20;;
18905;SDS011;9585;51.018;4.282;2022-08-01T04:42:51;7.25;;;6.45;;
18905;SDS011;9585;51.018;4.282;2022-08-01T04:45:19;6.50;;;5.90;;
18905;SDS011;9585;51.018;4.282;2022-08-01T04:47:48;6.90;;;6.10;;
18905;SDS011;9585;51.018;4.282;2022-08-01T04:50:16;7.03;;;6.32;;
18905;SDS011;9585;51.018;4.282;2022-08-01T04:52:48;6.18;;;5.57;;
18905;SDS011;9585;51.018;4.282;2022-08-01T04:55:17;6.97;;;5.70;;
18905;SDS011;9585;51.018;4.282;2022-08-01T04:57:47;7.90;;;6.95;;
18905;SDS011;9585;51.018;4.282;2022-08-01T05:00:20;6.97;;;6.28;;
18905;SDS011;9585;51.018;4.282;2022-08-01T05:02:47;6.97;;;5.80;;
18905;SDS011;9585;51.018;4.282;2022-08-01T05:05:15;5.82;;;4.93;;
18905;SDS011;9585;51.018;4.282;2022-08-01T05:07:43;7.70;;;6.30;;
18905;SDS011;9585;51.018;4.282;2022-08-01T05:10:17;6.07;;;5.47;;
18905;SDS011;9585;51.018;4.282;2022-08-01T05:12:45;5.38;;;4.88;;
18905;SDS011;9585;51.018;4.282;2022-08-01T05:15:12;6.10;;;5.15;;
18905;SDS011;9585;51.018;4.282;2022-08-01T05:17:42;5.75;;;5.15;;
18905;SDS011;9585;51.018;4.282;2022-08-01T05:20:10;5.68;;;4.88;;
18905;SDS011;9585;51.018;4.282;2022-08-01T05:22:41;6.43;;;5.72;;
18905;SDS011;9585;51.018;4.282;2022-08-01T05:25:09;5.70;;;4.90;;
18905;SDS011;9585;51.018;4.282;2022-08-01T05:27:40;6.20;;;4.95;;
18905;SDS011;9585;51.018;4.282;2022-08-01T05:30:08;4.85;;;4.40;;
18905;SDS011;9585;51.018;4.282;2022-08-01T05:32:38;3.97;;;3.35;;
18905;SDS011;9585;51.018;4.282;2022-08-01T05:35:06;4.05;;;3.65;;
18905;SDS011;9585;51.018;4.282;2022-08-01T05:37:34;4.97;;;3.95;;
18905;SDS011;9585;51.018;4.282;2022-08-01T05:40:02;5.35;;;4.25;;
18905;SDS011;9585;51.018;4.282;2022-08-01T05:42:30;7.07;;;5.40;;
18905;SDS011;9585;51.018;4.282;2022-08-01T05:45:04;6.72;;;4.28;;
18905;SDS011;9585;51.018;4.282;2022-08-01T05:47:32;5.38;;;4.10;;
18905;SDS011;9585;51.018;4.282;2022-08-01T05:49:59;5.93;;;4.93;;
18905;SDS011;9585;51.018;4.282;2022-08-01T05:52:27;4.95;;;4.07;;
18905;SDS011;9585;51.018;4.282;2022-08-01T05:54:56;5.25;;;3.67;;
18905;SDS011;9585;51.018;4.282;2022-08-01T05:57:23;4.75;;;4.28;;
18905;SDS011;9585;51.018;4.282;2022-08-01T05:59:55;3.38;;;2.97;;
18905;SDS011;9585;51.018;4.282;2022-08-01T06:02:35;3.63;;;3.33;;
18905;SDS011;9585;51.018;4.282;2022-08-01T06:05:08;3.03;;;2.72;;
18905;SDS011;9585;51.018;4.282;2022-08-01T06:07:35;4.15;;;3.10;;
18905;SDS011;9585;51.018;4.282;2022-08-01T06:10:04;4.50;;;3.20;;
18905;SDS011;9585;51.018;4.282;2022-08-01T06:12:32;4.28;;;3.15;;
18905;SDS011;9585;51.018;4.282;2022-08-01T06:15:00;3.75;;;3.40;;
18905;SDS011;9585;51.018;4.282;2022-08-01T06:17:29;3.15;;;2.85;;
18905;SDS011;9585;51.018;4.282;2022-08-01T06:20:12;5.20;;;3.17;;
18905;SDS011;9585;51.018;4.282;2022-08-01T06:22:42;4.78;;;2.67;;
18905;SDS011;9585;51.018;4.282;2022-08-01T06:25:12;5.32;;;3.40;;
18905;SDS011;9585;51.018;4.282;2022-08-01T06:27:39;7.72;;;3.20;;
18905;SDS011;9585;51.018;4.282;2022-08-01T06:30:07;5.75;;;2.60;;
18905;SDS011;9585;51.018;4.282;2022-08-01T06:32:35;3.30;;;2.63;;
18905;SDS011;9585;51.018;4.282;2022-08-01T06:35:02;2.90;;;1.80;;
18905;SDS011;9585;51.018;4.282;2022-08-01T06:37:43;5.25;;;2.55;;
18905;SDS011;9585;51.018;4.282;2022-08-01T06:40:14;9.20;;;2.97;;
18905;SDS011;9585;51.018;4.282;2022-08-01T06:42:43;6.05;;;2.50;;
18905;SDS011;9585;51.018;4.282;2022-08-01T06:45:14;7.80;;;3.00;;
18905;SDS011;9585;51.018;4.282;2022-08-01T06:47:42;5.60;;;2.38;;
18905;SDS011;9585;51.018;4.282;2022-08-01T06:50:16;4.63;;;2.25;;
18905;SDS011;9585;51.018;4.282;2022-08-01T06:52:43;3.75;;;2.15;;
18905;SDS011;9585;51.018;4.282;2022-08-01T06:55:11;4.30;;;1.90;;
18905;SDS011;9585;51.018;4.282;2022-08-01T06:57:45;2.72;;;1.58;;
18905;SDS011;9585;51.018;4.282;2022-08-01T07:00:15;3.92;;;1.60;;
18905;SDS011;9585;51.018;4.282;2022-08-01T07:02:48;2.50;;;1.10;;
18905;SDS011;9585;51.018;4.282;2022-08-01T07:05:22;1.20;;;1.10;;
18905;SDS011;9585;51.018;4.282;2022-08-01T07:07:56;1.63;;;1.10;;
18905;SDS011;9585;51.018;4.282;2022-08-01T07:10:32;2.38;;;1.27;;
18905;SDS011;9585;51.018;4.282;2022-08-01T07:13:10;1.65;;;1.10;;
18905;SDS011;9585;51.018;4.282;2022-08-01T07:15:40;1.85;;;1.13;;
18905;SDS011;9585;51.018;4.282;2022-08-01T07:18:12;1.45;;;1.13;;
18905;SDS011;9585;51.018;4.282;2022-08-01T07:20:49;1.20;;;0.95;;
18905;SDS011;9585;51.018;4.282;2022-08-01T07:23:33;1.88;;;1.33;;
18905;SDS011;9585;51.018;4.282;2022-08-01T07:26:00;1.38;;;1.10;;
18905;SDS011;9585;51.018;4.282;2022-08-01T07:28:29;1.00;;;0.77;;
18905;SDS011;9585;51.018;4.282;2022-08-01T07:30:57;1.17;;;0.85;;
18905;SDS011;9585;51.018;4.282;2022-08-01T07:33:41;1.17;;;0.82;;
18905;SDS011;9585;51.018;4.282;2022-08-01T07:36:23;1.23;;;0.80;;
18905;SDS011;9585;51.018;4.282;2022-08-01T07:38:54;1.02;;;0.60;;
18905;SDS011;9585;51.018;4.282;2022-08-01T07:41:39;1.52;;;0.60;;
18905;SDS011;9585;51.018;4.282;2022-08-01T07:44:21;1.35;;;0.70;;
18905;SDS011;9585;51.018;4.282;2022-08-01T07:46:49;0.80;;;0.40;;
18905;SDS011;9585;51.018;4.282;2022-08-01T07:49:16;1.02;;;0.50;;
18905;SDS011;9585;51.018;4.282;2022-08-01T07:51:46;1.55;;;0.50;;
18905;SDS011;9585;51.018;4.282;2022-08-01T07:54:13;1.35;;;0.60;;
18905;SDS011;9585;51.018;4.282;2022-08-01T07:56:41;0.90;;;0.60;;
18905;SDS011;9585;51.018;4.282;2022-08-01T07:59:08;0.93;;;0.55;;
18905;SDS011;9585;51.018;4.282;2022-08-01T08:04:29;0.98;;;0.50;;
18905;SDS011;9585;51.018;4.282;2022-08-01T08:07:11;0.80;;;0.60;;
18905;SDS011;9585;51.018;4.282;2022-08-01T08:09:54;1.10;;;0.43;;
18905;SDS011;9585;51.018;4.282;2022-08-01T08:12:21;1.10;;;0.60;;
18905;SDS011;9585;51.018;4.282;2022-08-01T08:14:49;1.13;;;0.50;;
18905;SDS011;9585;51.018;4.282;2022-08-01T08:17:17;0.75;;;0.50;;
18905;SDS011;9585;51.018;4.282;2022-08-01T08:19:48;0.40;;;0.40;;
18905;SDS011;9585;51.018;4.282;2022-08-01T08:22:17;1.02;;;0.40;;
18905;SDS011;9585;51.018;4.282;2022-08-01T08:24:44;0.93;;;0.50;;
18905;SDS011;9585;51.018;4.282;2022-08-01T08:27:15;1.02;;;0.30;;
18905;SDS011;9585;51.018;4.282;2022-08-01T08:29:42;0.52;;;0.35;;
18905;SDS011;9585;51.018;4.282;2022-08-01T08:32:10;0.65;;;0.30;;
18905;SDS011;9585;51.018;4.282;2022-08-01T08:34:41;2.10;;;0.40;;
18905;SDS011;9585;51.018;4.282;2022-08-01T08:37:09;0.30;;;0.30;;
18905;SDS011;9585;51.018;4.282;2022-08-01T08:39:39;0.82;;;0.50;;
18905;SDS011;9585;51.018;4.282;2022-08-01T08:42:07;0.88;;;0.30;;
18905;SDS011;9585;51.018;4.282;2022-08-01T08:44:36;1.55;;;0.30;;
18905;SDS011;9585;51.018;4.282;2022-08-01T08:47:05;1.10;;;0.50;;
18905;SDS011;9585;51.018;4.282;2022-08-01T08:49:34;0.80;;;0.50;;
18905;SDS011;9585;51.018;4.282;2022-08-01T08:52:03;0.63;;;0.50;;
18905;SDS011;9585;51.018;4.282;2022-08-01T08:54:31;0.70;;;0.50;;
18905;SDS011;9585;51.018;4.282;2022-08-01T08:57:03;0.93;;;0.50;;
18905;SDS011;9585;51.018;4.282;2022-08-01T08:59:36;0.50;;;0.40;;
18905;SDS011;9585;51.018;4.282;2022-08-01T09:02:04;1.13;;;0.45;;
18905;SDS011;9585;51.018;4.282;2022-08-01T09:04:35;0.68;;;0.30;;
18905;SDS011;9585;51.018;4.282;2022-08-01T09:07:05;1.65;;;0.40;;
18905;SDS011;9585;51.018;4.282;2022-08-01T09:09:33;0.60;;;0.30;;
18905;SDS011;9585;51.018;4.282;2022-08-01T09:12:04;1.40;;;0.50;;
18905;SDS011;9585;51.018;4.282;2022-08-01T09:14:35;0.90;;;0.50;;
18905;SDS011;9585;51.018;4.282;2022-08-01T09:17:12;0.45;;;0.30;;
18905;SDS011;9585;51.018;4.282;2022-08-01T09:19:42;0.85;;;0.38;;
18905;SDS011;9585;51.018;4.282;2022-08-01T09:22:13;1.13;;;0.40;;
18905;SDS011;9585;51.018;4.282;2022-08-01T09:24:59;0.40;;;0.40;;
18905;SDS011;9585;51.018;4.282;2022-08-01T09:27:31;0.90;;;0.30;;
18905;SDS011;9585;51.018;4.282;2022-08-01T09:30:09;0.70;;;0.60;;
18905;SDS011;9585;51.018;4.282;2022-08-01T09:32:52;1.77;;;0.50;;
18905;SDS011;9585;51.018;4.282;2022-08-01T09:35:24;0.57;;;0.40;;
18905;SDS011;9585;51.018;4.282;2022-08-01T09:37:57;1.45;;;0.55;;
18905;SDS011;9585;51.018;4.282;2022-08-01T09:40:50;1.00;;;0.52;;
18905;SDS011;9585;51.018;4.282;2022-08-01T09:43:21;0.82;;;0.50;;
18905;SDS011;9585;51.018;4.282;2022-08-01T09:45:50;1.05;;;0.50;;
18905;SDS011;9585;51.018;4.282;2022-08-01T09:48:18;1.48;;;0.50;;
18905;SDS011;9585;51.018;4.282;2022-08-01T09:50:46;2.13;;;0.60;;
18905;SDS011;9585;51.018;4.282;2022-08-01T09:53:17;2.88;;;0.65;;
18905;SDS011;9585;51.018;4.282;2022-08-01T09:58:52;0.80;;;0.45;;
18905;SDS011;9585;51.018;4.282;2022-08-01T10:01:21;1.58;;;0.60;;
18905;SDS011;9585;51.018;4.282;2022-08-01T10:04:05;1.40;;;0.57;;
18905;SDS011;9585;51.018;4.282;2022-08-01T10:06:37;1.17;;;0.70;;
18905;SDS011;9585;51.018;4.282;2022-08-01T10:09:09;1.95;;;0.70;;
18905;SDS011;9585;51.018;4.282;2022-08-01T10:11:40;1.35;;;0.70;;
18905;SDS011;9585;51.018;4.282;2022-08-01T10:14:10;0.90;;;0.65;;
18905;SDS011;9585;51.018;4.282;2022-08-01T10:16:40;0.93;;;0.70;;
18905;SDS011;9585;51.018;4.282;2022-08-01T10:19:07;1.25;;;0.57;;
18905;SDS011;9585;51.018;4.282;2022-08-01T10:21:35;1.08;;;0.70;;
18905;SDS011;9585;51.018;4.282;2022-08-01T10:24:06;1.15;;;0.65;;
18905;SDS011;9585;51.018;4.282;2022-08-01T10:26:37;0.98;;;0.60;;
18905;SDS011;9585;51.018;4.282;2022-08-01T10:32:10;1.85;;;0.70;;
18905;SDS011;9585;51.018;4.282;2022-08-01T10:35:16;0.77;;;0.60;;
18905;SDS011;9585;51.018;4.282;2022-08-01T10:37:59;0.55;;;0.50;;
18905;SDS011;9585;51.018;4.282;2022-08-01T10:40:43;2.05;;;0.80;;
18905;SDS011;9585;51.018;4.282;2022-08-01T10:43:11;1.83;;;0.80;;
18905;SDS011;9585;51.018;4.282;2022-08-01T10:45:41;1.08;;;0.70;;
18905;SDS011;9585;51.018;4.282;2022-08-01T10:48:10;2.25;;;0.82;;
18905;SDS011;9585;51.018;4.282;2022-08-01T10:50:44;3.03;;;0.90;;
18905;SDS011;9585;51.018;4.282;2022-08-01T10:53:15;1.63;;;0.80;;
18905;SDS011;9585;51.018;4.282;2022-08-01T10:55:48;1.35;;;0.90;;
18905;SDS011;9585;51.018;4.282;2022-08-01T10:58:32;2.17;;;0.95;;
18905;SDS011;9585;51.018;4.282;2022-08-01T11:01:24;2.30;;;0.70;;
18905;SDS011;9585;51.018;4.282;2022-08-01T11:04:14;2.58;;;0.90;;
18905;SDS011;9585;51.018;4.282;2022-08-01T11:09:39;1.42;;;0.90;;
18905;SDS011;9585;51.018;4.282;2022-08-01T11:12:09;1.80;;;1.00;;
18905;SDS011;9585;51.018;4.282;2022-08-01T11:18:28;1.17;;;0.68;;
18905;SDS011;9585;51.018;4.282;2022-08-01T11:21:02;3.13;;;0.90;;
18905;SDS011;9585;51.018;4.282;2022-08-01T11:23:30;1.13;;;0.70;;
18905;SDS011;9585;51.018;4.282;2022-08-01T11:26:16;1.13;;;0.80;;
18905;SDS011;9585;51.018;4.282;2022-08-01T11:31:39;2.35;;;0.70;;
18905;SDS011;9585;51.018;4.282;2022-08-01T11:34:07;1.67;;;0.93;;
18905;SDS011;9585;51.018;4.282;2022-08-01T11:36:42;2.38;;;0.88;;
18905;SDS011;9585;51.018;4.282;2022-08-01T11:39:11;1.55;;;0.60;;
18905;SDS011;9585;51.018;4.282;2022-08-01T11:41:43;2.63;;;0.82;;
18905;SDS011;9585;51.018;4.282;2022-08-01T11:44:13;2.20;;;0.70;;
18905;SDS011;9585;51.018;4.282;2022-08-01T11:46:48;3.10;;;1.08;;
18905;SDS011;9585;51.018;4.282;2022-08-01T11:49:32;1.77;;;0.80;;
18905;SDS011;9585;51.018;4.282;2022-08-01T11:52:29;2.10;;;0.73;;
18905;SDS011;9585;51.018;4.282;2022-08-01T11:55:06;1.88;;;0.80;;
18905;SDS011;9585;51.018;4.282;2022-08-01T11:57:43;1.38;;;0.80;;
18905;SDS011;9585;51.018;4.282;2022-08-01T12:00:13;1.48;;;0.70;;
18905;SDS011;9585;51.018;4.282;2022-08-01T12:02:56;1.33;;;0.70;;
18905;SDS011;9585;51.018;4.282;2022-08-01T12:05:24;1.58;;;0.70;;
18905;SDS011;9585;51.018;4.282;2022-08-01T12:07:55;1.20;;;0.73;;
18905;SDS011;9585;51.018;4.282;2022-08-01T12:10:30;1.05;;;0.70;;
18905;SDS011;9585;51.018;4.282;2022-08-01T12:13:09;1.02;;;0.70;;
18905;SDS011;9585;51.018;4.282;2022-08-01T12:15:38;1.55;;;0.73;;
18905;SDS011;9585;51.018;4.282;2022-08-01T12:18:06;1.25;;;0.60;;
18905;SDS011;9585;51.018;4.282;2022-08-01T12:20:39;0.80;;;0.68;;
18905;SDS011;9585;51.018;4.282;2022-08-01T12:23:11;0.90;;;0.60;;
18905;SDS011;9585;51.018;4.282;2022-08-01T12:25:41;2.15;;;0.70;;
18905;SDS011;9585;51.018;4.282;2022-08-01T12:28:10;1.30;;;0.70;;
18905;SDS011;9585;51.018;4.282;2022-08-01T12:30:39;1.23;;;0.68;;
18905;SDS011;9585;51.018;4.282;2022-08-01T12:33:09;1.60;;;0.90;;
18905;SDS011;9585;51.018;4.282;2022-08-01T12:35:43;1.15;;;0.60;;
18905;SDS011;9585;51.018;4.282;2022-08-01T12:38:15;1.25;;;0.73;;
18905;SDS011;9585;51.018;4.282;2022-08-01T12:40:46;1.38;;;0.75;;
18905;SDS011;9585;51.018;4.282;2022-08-01T12:43:15;2.05;;;0.70;;
18905;SDS011;9585;51.018;4.282;2022-08-01T12:45:45;1.50;;;0.70;;
18905;SDS011;9585;51.018;4.282;2022-08-01T12:48:13;1.40;;;0.80;;
18905;SDS011;9585;51.018;4.282;2022-08-01T12:50:42;1.23;;;0.60;;
18905;SDS011;9585;51.018;4.282;2022-08-01T12:53:11;1.58;;;0.82;;
18905;SDS011;9585;51.018;4.282;2022-08-01T12:55:46;1.63;;;0.80;;
18905;SDS011;9585;51.018;4.282;2022-08-01T12:58:15;1.35;;;0.60;;
18905;SDS011;9585;51.018;4.282;2022-08-01T13:00:45;0.80;;;0.47;;
18905;SDS011;9585;51.018;4.282;2022-08-01T13:03:13;1.75;;;0.70;;
18905;SDS011;9585;51.018;4.282;2022-08-01T13:05:44;1.98;;;0.77;;
18905;SDS011;9585;51.018;4.282;2022-08-01T13:08:14;2.63;;;0.63;;
18905;SDS011;9585;51.018;4.282;2022-08-01T13:10:45;1.70;;;0.70;;
18905;SDS011;9585;51.018;4.282;2022-08-01T13:13:14;2.63;;;0.70;;
18905;SDS011;9585;51.018;4.282;2022-08-01T13:15:43;1.00;;;0.60;;
18905;SDS011;9585;51.018;4.282;2022-08-01T13:18:24;2.03;;;0.73;;
18905;SDS011;9585;51.018;4.282;2022-08-01T13:21:09;1.15;;;0.68;;
18905;SDS011;9585;51.018;4.282;2022-08-01T13:23:38;1.27;;;0.70;;
18905;SDS011;9585;51.018;4.282;2022-08-01T13:26:08;2.03;;;0.90;;
18905;SDS011;9585;51.018;4.282;2022-08-01T13:28:35;2.25;;;0.80;;
18905;SDS011;9585;51.018;4.282;2022-08-01T13:31:04;3.30;;;0.70;;
18905;SDS011;9585;51.018;4.282;2022-08-01T13:33:41;1.05;;;0.45;;
18905;SDS011;9585;51.018;4.282;2022-08-01T13:36:10;1.33;;;0.68;;
18905;SDS011;9585;51.018;4.282;2022-08-01T13:38:38;1.67;;;0.68;;
18905;SDS011;9585;51.018;4.282;2022-08-01T13:41:25;2.10;;;0.80;;
18905;SDS011;9585;51.018;4.282;2022-08-01T13:43:53;1.80;;;0.73;;
18905;SDS011;9585;51.018;4.282;2022-08-01T13:46:20;2.45;;;0.70;;
18905;SDS011;9585;51.018;4.282;2022-08-01T13:48:47;0.93;;;0.50;;
18905;SDS011;9585;51.018;4.282;2022-08-01T13:51:15;0.50;;;0.40;;
18905;SDS011;9585;51.018;4.282;2022-08-01T13:54:04;0.40;;;0.40;;
18905;SDS011;9585;51.018;4.282;2022-08-01T13:56:34;1.45;;;0.52;;
18905;SDS011;9585;51.018;4.282;2022-08-01T13:59:02;1.40;;;0.60;;
18905;SDS011;9585;51.018;4.282;2022-08-01T14:01:29;1.33;;;0.70;;
18905;SDS011;9585;51.018;4.282;2022-08-01T14:03:58;0.93;;;0.50;;
18905;SDS011;9585;51.018;4.282;2022-08-01T14:06:26;0.85;;;0.52;;
18905;SDS011;9585;51.018;4.282;2022-08-01T14:08:53;0.55;;;0.40;;
18905;SDS011;9585;51.018;4.282;2022-08-01T14:11:21;0.43;;;0.40;;
18905;SDS011;9585;51.018;4.282;2022-08-01T14:13:50;1.13;;;0.60;;
18905;SDS011;9585;51.018;4.282;2022-08-01T14:16:17;1.30;;;0.50;;
18905;SDS011;9585;51.018;4.282;2022-08-01T14:18:48;1.33;;;0.70;;
18905;SDS011;9585;51.018;4.282;2022-08-01T14:21:16;1.00;;;0.75;;
18905;SDS011;9585;51.018;4.282;2022-08-01T14:23:44;1.00;;;0.65;;
18905;SDS011;9585;51.018;4.282;2022-08-01T14:26:12;1.15;;;0.60;;
18905;SDS011;9585;51.018;4.282;2022-08-01T14:28:39;1.65;;;0.60;;
18905;SDS011;9585;51.018;4.282;2022-08-01T14:31:09;1.08;;;0.68;;
18905;SDS011;9585;51.018;4.282;2022-08-01T14:33:37;3.45;;;0.80;;
18905;SDS011;9585;51.018;4.282;2022-08-01T14:36:04;0.60;;;0.43;;
18905;SDS011;9585;51.018;4.282;2022-08-01T14:38:32;0.73;;;0.52;;
18905;SDS011;9585;51.018;4.282;2022-08-01T14:40:59;0.80;;;0.60;;
18905;SDS011;9585;51.018;4.282;2022-08-01T14:43:28;2.20;;;0.60;;
18905;SDS011;9585;51.018;4.282;2022-08-01T14:45:56;0.93;;;0.70;;
18905;SDS011;9585;51.018;4.282;2022-08-01T14:48:29;1.13;;;0.60;;
18905;SDS011;9585;51.018;4.282;2022-08-01T14:50:58;0.85;;;0.60;;
18905;SDS011;9585;51.018;4.282;2022-08-01T14:53:27;1.70;;;0.77;;
18905;SDS011;9585;51.018;4.282;2022-08-01T14:55:55;3.60;;;0.70;;
18905;SDS011;9585;51.018;4.282;2022-08-01T14:58:22;1.15;;;0.60;;
18905;SDS011;9585;51.018;4.282;2022-08-01T15:00:50;1.15;;;0.73;;
18905;SDS011;9585;51.018;4.282;2022-08-01T15:03:19;1.67;;;0.70;;
18905;SDS011;9585;51.018;4.282;2022-08-01T15:05:51;2.35;;;0.75;;
18905;SDS011;9585;51.018;4.282;2022-08-01T15:08:19;1.25;;;0.70;;
18905;SDS011;9585;51.018;4.282;2022-08-01T15:10:47;1.90;;;0.80;;
18905;SDS011;9585;51.018;4.282;2022-08-01T15:13:14;1.95;;;0.70;;
18905;SDS011;9585;51.018;4.282;2022-08-01T15:15:42;0.93;;;0.70;;
18905;SDS011;9585;51.018;4.282;2022-08-01T15:18:10;2.97;;;0.80;;
18905;SDS011;9585;51.018;4.282;2022-08-01T15:20:39;3.13;;;0.75;;
18905;SDS011;9585;51.018;4.282;2022-08-01T15:23:11;2.45;;;0.85;;
18905;SDS011;9585;51.018;4.282;2022-08-01T15:25:38;2.72;;;0.80;;
18905;SDS011;9585;51.018;4.282;2022-08-01T15:28:09;1.33;;;0.60;;
18905;SDS011;9585;51.018;4.282;2022-08-01T15:30:36;1.52;;;0.93;;
18905;SDS011;9585;51.018;4.282;2022-08-01T15:33:05;1.85;;;0.88;;
18905;SDS011;9585;51.018;4.282;2022-08-01T15:35:32;3.55;;;0.80;;
18905;SDS011;9585;51.018;4.282;2022-08-01T15:38:00;2.35;;;0.70;;
18905;SDS011;9585;51.018;4.282;2022-08-01T15:40:29;2.25;;;0.80;;
18905;SDS011;9585;51.018;4.282;2022-08-01T15:42:59;0.88;;;0.57;;
18905;SDS011;9585;51.018;4.282;2022-08-01T15:45:26;1.30;;;0.68;;
18905;SDS011;9585;51.018;4.282;2022-08-01T15:47:54;1.95;;;0.70;;
18905;SDS011;9585;51.018;4.282;2022-08-01T15:50:22;1.20;;;0.70;;
18905;SDS011;9585;51.018;4.282;2022-08-01T15:52:51;1.17;;;0.70;;